Terminal Aerodrome Forecast
Issued by NWS

Home | Current Version | Previous Version | Text Only | Print | Product List | Glossary On
Versions: 1 2 3 4 5 6 7 8 9 10 11 12 13 14 15 16 17 18 19 20 21 22 23 24 25 26
000
FTUS46 KSEW 310500
TAFSEA
TAF
KSEA 310520Z 3106/0112 VRB05KT 6SM -SHRA BR SCT015 SCT025 OVC035
      TEMPO 3106/3108 5SM -SHRA BR SCT015 BKN022 OVC035
     FM310800 18004KT P6SM VCSH SCT015 BKN020 BKN035
     FM311900 20008KT P6SM VCSH SCT015 BKN050
     FM312100 21008KT P6SM SCT050 BKN070
     FM010300 27004KT P6SM -SHRA BKN035 BKN050
     FM010700 18005KT P6SM VCSH OVC025
     FM011000 17004KT P6SM OVC020=

USA.gov is the U.S. government's official web portal to all federal, state and local government web resources and services.